sensor_id;sensor_type;location;lat;lon;timestamp;P1;durP1;ratioP1;P2;durP2;ratioP2
45039;SDS011;30778;53.574;7.770;2023-11-19T00:02:21;8.35;;;5.38;;
45039;SDS011;30778;53.574;7.770;2023-11-19T00:04:47;7.90;;;5.72;;
45039;SDS011;30778;53.574;7.770;2023-11-19T00:07:13;11.18;;;6.47;;
45039;SDS011;30778;53.574;7.770;2023-11-19T00:09:39;8.25;;;6.07;;
45039;SDS011;30778;53.574;7.770;2023-11-19T00:12:05;11.52;;;5.97;;
45039;SDS011;30778;53.574;7.770;2023-11-19T00:14:31;9.27;;;6.30;;
45039;SDS011;30778;53.574;7.770;2023-11-19T00:16:57;10.32;;;7.20;;
45039;SDS011;30778;53.574;7.770;2023-11-19T00:19:22;9.48;;;6.40;;
45039;SDS011;30778;53.574;7.770;2023-11-19T00:21:48;15.80;;;7.93;;
45039;SDS011;30778;53.574;7.770;2023-11-19T00:24:14;12.70;;;8.40;;
45039;SDS011;30778;53.574;7.770;2023-11-19T00:26:42;16.75;;;9.15;;
45039;SDS011;30778;53.574;7.770;2023-11-19T00:29:07;11.98;;;8.20;;
45039;SDS011;30778;53.574;7.770;2023-11-19T00:31:33;14.48;;;9.20;;
45039;SDS011;30778;53.574;7.770;2023-11-19T00:33:59;13.63;;;9.20;;
45039;SDS011;30778;53.574;7.770;2023-11-19T00:36:24;14.85;;;9.27;;
45039;SDS011;30778;53.574;7.770;2023-11-19T00:38:50;15.50;;;9.20;;
45039;SDS011;30778;53.574;7.770;2023-11-19T00:41:18;16.75;;;8.45;;
45039;SDS011;30778;53.574;7.770;2023-11-19T00:43:44;15.32;;;8.93;;
45039;SDS011;30778;53.574;7.770;2023-11-19T00:46:10;17.35;;;9.35;;
45039;SDS011;30778;53.574;7.770;2023-11-19T00:48:39;17.25;;;9.23;;
45039;SDS011;30778;53.574;7.770;2023-11-19T00:51:04;20.83;;;9.27;;
45039;SDS011;30778;53.574;7.770;2023-11-19T00:53:31;15.90;;;9.27;;
45039;SDS011;30778;53.574;7.770;2023-11-19T00:56:00;17.77;;;9.13;;
45039;SDS011;30778;53.574;7.770;2023-11-19T00:58:25;16.35;;;9.95;;
45039;SDS011;30778;53.574;7.770;2023-11-19T01:00:51;16.15;;;9.68;;
45039;SDS011;30778;53.574;7.770;2023-11-19T01:03:16;17.02;;;9.73;;
45039;SDS011;30778;53.574;7.770;2023-11-19T01:05:42;18.88;;;10.60;;
45039;SDS011;30778;53.574;7.770;2023-11-19T01:08:09;17.98;;;7.90;;
45039;SDS011;30778;53.574;7.770;2023-11-19T01:10:36;19.92;;;10.07;;
45039;SDS011;30778;53.574;7.770;2023-11-19T01:13:02;17.27;;;9.77;;
45039;SDS011;30778;53.574;7.770;2023-11-19T01:15:31;13.85;;;8.85;;
45039;SDS011;30778;53.574;7.770;2023-11-19T01:17:57;16.13;;;9.75;;
45039;SDS011;30778;53.574;7.770;2023-11-19T01:20:23;17.95;;;8.80;;
45039;SDS011;30778;53.574;7.770;2023-11-19T01:22:50;17.50;;;9.70;;
45039;SDS011;30778;53.574;7.770;2023-11-19T01:25:16;16.77;;;7.78;;
45039;SDS011;30778;53.574;7.770;2023-11-19T01:27:43;18.95;;;8.50;;
45039;SDS011;30778;53.574;7.770;2023-11-19T01:30:09;20.42;;;9.98;;
45039;SDS011;30778;53.574;7.770;2023-11-19T01:32:38;19.33;;;9.65;;
45039;SDS011;30778;53.574;7.770;2023-11-19T01:35:03;16.33;;;8.57;;
45039;SDS011;30778;53.574;7.770;2023-11-19T01:37:29;16.83;;;9.02;;
45039;SDS011;30778;53.574;7.770;2023-11-19T01:39:56;31.48;;;10.70;;
45039;SDS011;30778;53.574;7.770;2023-11-19T01:42:23;21.08;;;9.25;;
45039;SDS011;30778;53.574;7.770;2023-11-19T01:45:00;23.60;;;10.85;;
45039;SDS011;30778;53.574;7.770;2023-11-19T01:47:29;21.20;;;10.07;;
45039;SDS011;30778;53.574;7.770;2023-11-19T01:49:56;23.80;;;10.05;;
45039;SDS011;30778;53.574;7.770;2023-11-19T01:52:22;24.63;;;11.05;;
45039;SDS011;30778;53.574;7.770;2023-11-19T01:54:48;22.95;;;10.13;;
45039;SDS011;30778;53.574;7.770;2023-11-19T01:57:15;22.70;;;9.85;;
45039;SDS011;30778;53.574;7.770;2023-11-19T01:59:41;16.58;;;7.90;;
45039;SDS011;30778;53.574;7.770;2023-11-19T02:02:07;16.80;;;8.82;;
45039;SDS011;30778;53.574;7.770;2023-11-19T02:04:32;16.63;;;9.43;;
45039;SDS011;30778;53.574;7.770;2023-11-19T02:07:00;16.55;;;8.00;;
45039;SDS011;30778;53.574;7.770;2023-11-19T02:09:26;20.92;;;8.85;;
45039;SDS011;30778;53.574;7.770;2023-11-19T02:11:52;16.38;;;8.32;;
45039;SDS011;30778;53.574;7.770;2023-11-19T02:14:19;17.58;;;8.48;;
45039;SDS011;30778;53.574;7.770;2023-11-19T02:16:49;17.25;;;7.43;;
45039;SDS011;30778;53.574;7.770;2023-11-19T02:19:15;17.92;;;7.53;;
45039;SDS011;30778;53.574;7.770;2023-11-19T02:21:40;13.68;;;7.45;;
45039;SDS011;30778;53.574;7.770;2023-11-19T02:24:07;22.60;;;8.00;;
45039;SDS011;30778;53.574;7.770;2023-11-19T02:29:05;22.60;;;8.52;;
45039;SDS011;30778;53.574;7.770;2023-11-19T02:31:32;14.80;;;6.22;;
45039;SDS011;30778;53.574;7.770;2023-11-19T02:33:59;14.52;;;7.60;;
45039;SDS011;30778;53.574;7.770;2023-11-19T02:36:27;20.30;;;7.28;;
45039;SDS011;30778;53.574;7.770;2023-11-19T02:38:53;14.57;;;7.28;;
45039;SDS011;30778;53.574;7.770;2023-11-19T02:41:18;19.52;;;7.05;;
45039;SDS011;30778;53.574;7.770;2023-11-19T02:43:44;21.83;;;7.35;;
45039;SDS011;30778;53.574;7.770;2023-11-19T02:46:09;24.80;;;7.50;;
45039;SDS011;30778;53.574;7.770;2023-11-19T02:48:36;23.17;;;7.50;;
45039;SDS011;30778;53.574;7.770;2023-11-19T02:51:02;20.63;;;7.18;;
45039;SDS011;30778;53.574;7.770;2023-11-19T02:53:34;18.35;;;7.05;;
45039;SDS011;30778;53.574;7.770;2023-11-19T02:56:00;21.52;;;7.28;;
45039;SDS011;30778;53.574;7.770;2023-11-19T02:58:42;27.48;;;8.15;;
45039;SDS011;30778;53.574;7.770;2023-11-19T03:01:10;17.95;;;6.13;;
45039;SDS011;30778;53.574;7.770;2023-11-19T03:03:44;19.38;;;6.35;;
45039;SDS011;30778;53.574;7.770;2023-11-19T03:06:14;14.60;;;5.05;;
45039;SDS011;30778;53.574;7.770;2023-11-19T03:08:40;21.42;;;6.07;;
45039;SDS011;30778;53.574;7.770;2023-11-19T03:11:05;13.60;;;5.70;;
45039;SDS011;30778;53.574;7.770;2023-11-19T03:13:31;19.73;;;6.00;;
45039;SDS011;30778;53.574;7.770;2023-11-19T03:15:56;20.58;;;6.05;;
45039;SDS011;30778;53.574;7.770;2023-11-19T03:18:22;22.50;;;4.97;;
45039;SDS011;30778;53.574;7.770;2023-11-19T03:20:47;29.83;;;5.57;;
45039;SDS011;30778;53.574;7.770;2023-11-19T03:23:13;25.00;;;4.70;;
45039;SDS011;30778;53.574;7.770;2023-11-19T03:25:38;22.65;;;5.00;;
45039;SDS011;30778;53.574;7.770;2023-11-19T03:28:04;26.10;;;4.65;;
45039;SDS011;30778;53.574;7.770;2023-11-19T03:30:30;15.75;;;4.63;;
45039;SDS011;30778;53.574;7.770;2023-11-19T03:32:59;28.45;;;5.00;;
45039;SDS011;30778;53.574;7.770;2023-11-19T03:35:27;19.75;;;4.00;;
45039;SDS011;30778;53.574;7.770;2023-11-19T03:37:53;24.65;;;3.80;;
45039;SDS011;30778;53.574;7.770;2023-11-19T03:40:19;19.50;;;3.78;;
45039;SDS011;30778;53.574;7.770;2023-11-19T03:42:45;12.68;;;2.72;;
45039;SDS011;30778;53.574;7.770;2023-11-19T03:45:11;32.67;;;3.97;;
45039;SDS011;30778;53.574;7.770;2023-11-19T03:47:37;26.27;;;4.18;;
45039;SDS011;30778;53.574;7.770;2023-11-19T03:50:02;28.33;;;4.80;;
45039;SDS011;30778;53.574;7.770;2023-11-19T03:52:29;25.58;;;3.63;;
45039;SDS011;30778;53.574;7.770;2023-11-19T03:54:55;27.48;;;3.88;;
45039;SDS011;30778;53.574;7.770;2023-11-19T03:57:21;29.50;;;3.33;;
45039;SDS011;30778;53.574;7.770;2023-11-19T03:59:47;24.33;;;3.00;;
45039;SDS011;30778;53.574;7.770;2023-11-19T04:02:13;29.95;;;4.15;;
45039;SDS011;30778;53.574;7.770;2023-11-19T04:04:39;34.78;;;4.55;;
45039;SDS011;30778;53.574;7.770;2023-11-19T04:07:04;23.40;;;2.95;;
45039;SDS011;30778;53.574;7.770;2023-11-19T04:09:30;26.40;;;3.47;;
45039;SDS011;30778;53.574;7.770;2023-11-19T04:11:58;32.78;;;4.20;;
45039;SDS011;30778;53.574;7.770;2023-11-19T04:14:26;22.95;;;4.15;;
45039;SDS011;30778;53.574;7.770;2023-11-19T04:16:52;30.67;;;3.53;;
45039;SDS011;30778;53.574;7.770;2023-11-19T04:19:18;23.83;;;4.93;;
45039;SDS011;30778;53.574;7.770;2023-11-19T04:21:44;33.13;;;2.97;;
45039;SDS011;30778;53.574;7.770;2023-11-19T04:24:10;30.70;;;4.13;;
45039;SDS011;30778;53.574;7.770;2023-11-19T04:26:40;33.75;;;3.55;;
45039;SDS011;30778;53.574;7.770;2023-11-19T04:29:13;28.50;;;4.65;;
45039;SDS011;30778;53.574;7.770;2023-11-19T04:31:41;24.95;;;2.97;;
45039;SDS011;30778;53.574;7.770;2023-11-19T04:34:07;30.60;;;3.60;;
45039;SDS011;30778;53.574;7.770;2023-11-19T04:36:33;27.83;;;2.70;;
45039;SDS011;30778;53.574;7.770;2023-11-19T04:38:59;22.10;;;3.05;;
45039;SDS011;30778;53.574;7.770;2023-11-19T04:41:26;29.35;;;3.08;;
45039;SDS011;30778;53.574;7.770;2023-11-19T04:43:53;27.45;;;4.53;;
45039;SDS011;30778;53.574;7.770;2023-11-19T04:46:19;21.88;;;3.22;;
45039;SDS011;30778;53.574;7.770;2023-11-19T04:48:45;38.50;;;5.43;;
45039;SDS011;30778;53.574;7.770;2023-11-19T04:51:10;22.88;;;3.03;;
45039;SDS011;30778;53.574;7.770;2023-11-19T04:53:36;30.50;;;4.03;;
45039;SDS011;30778;53.574;7.770;2023-11-19T04:56:07;22.83;;;3.17;;
45039;SDS011;30778;53.574;7.770;2023-11-19T05:01:01;14.07;;;3.47;;
45039;SDS011;30778;53.574;7.770;2023-11-19T05:03:26;21.30;;;2.80;;
45039;SDS011;30778;53.574;7.770;2023-11-19T05:05:52;20.38;;;2.65;;
45039;SDS011;30778;53.574;7.770;2023-11-19T05:08:18;26.88;;;3.60;;
45039;SDS011;30778;53.574;7.770;2023-11-19T05:10:44;17.67;;;2.50;;
45039;SDS011;30778;53.574;7.770;2023-11-19T05:13:09;21.52;;;3.17;;
45039;SDS011;30778;53.574;7.770;2023-11-19T05:15:35;20.50;;;2.95;;
45039;SDS011;30778;53.574;7.770;2023-11-19T05:18:01;23.17;;;4.10;;
45039;SDS011;30778;53.574;7.770;2023-11-19T05:20:26;18.95;;;3.75;;
45039;SDS011;30778;53.574;7.770;2023-11-19T05:22:52;38.00;;;4.25;;
45039;SDS011;30778;53.574;7.770;2023-11-19T05:25:18;29.15;;;5.00;;
45039;SDS011;30778;53.574;7.770;2023-11-19T05:27:45;19.05;;;2.35;;
45039;SDS011;30778;53.574;7.770;2023-11-19T05:30:10;18.90;;;2.90;;
45039;SDS011;30778;53.574;7.770;2023-11-19T05:32:36;19.25;;;3.30;;
45039;SDS011;30778;53.574;7.770;2023-11-19T05:35:02;25.17;;;4.40;;
45039;SDS011;30778;53.574;7.770;2023-11-19T05:37:28;22.27;;;2.95;;
45039;SDS011;30778;53.574;7.770;2023-11-19T05:39:54;18.45;;;3.17;;
45039;SDS011;30778;53.574;7.770;2023-11-19T05:42:19;16.65;;;2.78;;
45039;SDS011;30778;53.574;7.770;2023-11-19T05:44:45;20.33;;;2.83;;
45039;SDS011;30778;53.574;7.770;2023-11-19T05:47:11;23.55;;;3.47;;
45039;SDS011;30778;53.574;7.770;2023-11-19T05:49:37;27.90;;;5.57;;
45039;SDS011;30778;53.574;7.770;2023-11-19T05:52:03;22.77;;;4.25;;
45039;SDS011;30778;53.574;7.770;2023-11-19T05:54:28;26.08;;;3.58;;
45039;SDS011;30778;53.574;7.770;2023-11-19T05:56:54;36.83;;;3.85;;
45039;SDS011;30778;53.574;7.770;2023-11-19T05:59:20;22.20;;;3.78;;
45039;SDS011;30778;53.574;7.770;2023-11-19T06:01:47;27.98;;;4.80;;
45039;SDS011;30778;53.574;7.770;2023-11-19T06:04:16;31.33;;;4.90;;
45039;SDS011;30778;53.574;7.770;2023-11-19T06:06:41;18.17;;;3.38;;
45039;SDS011;30778;53.574;7.770;2023-11-19T06:09:07;27.38;;;3.33;;
45039;SDS011;30778;53.574;7.770;2023-11-19T06:11:34;24.33;;;3.85;;
45039;SDS011;30778;53.574;7.770;2023-11-19T06:14:01;21.60;;;3.72;;
45039;SDS011;30778;53.574;7.770;2023-11-19T06:16:27;28.20;;;3.22;;
45039;SDS011;30778;53.574;7.770;2023-11-19T06:18:53;28.88;;;3.92;;
45039;SDS011;30778;53.574;7.770;2023-11-19T06:21:18;22.55;;;2.75;;
45039;SDS011;30778;53.574;7.770;2023-11-19T06:23:44;30.42;;;3.65;;
45039;SDS011;30778;53.574;7.770;2023-11-19T06:26:10;34.83;;;3.65;;
45039;SDS011;30778;53.574;7.770;2023-11-19T06:28:36;34.88;;;3.78;;
45039;SDS011;30778;53.574;7.770;2023-11-19T06:31:03;21.85;;;3.38;;
45039;SDS011;30778;53.574;7.770;2023-11-19T06:33:29;24.80;;;3.08;;
45039;SDS011;30778;53.574;7.770;2023-11-19T06:35:54;24.30;;;4.10;;
45039;SDS011;30778;53.574;7.770;2023-11-19T06:38:20;26.95;;;3.72;;
45039;SDS011;30778;53.574;7.770;2023-11-19T06:40:45;24.95;;;4.28;;
45039;SDS011;30778;53.574;7.770;2023-11-19T06:43:11;29.85;;;3.42;;
45039;SDS011;30778;53.574;7.770;2023-11-19T06:45:36;24.63;;;4.18;;
45039;SDS011;30778;53.574;7.770;2023-11-19T06:48:02;23.38;;;3.58;;
45039;SDS011;30778;53.574;7.770;2023-11-19T06:50:29;28.23;;;3.65;;
45039;SDS011;30778;53.574;7.770;2023-11-19T06:52:54;26.98;;;5.43;;
45039;SDS011;30778;53.574;7.770;2023-11-19T06:55:20;28.60;;;4.57;;
45039;SDS011;30778;53.574;7.770;2023-11-19T06:57:45;26.63;;;3.72;;
45039;SDS011;30778;53.574;7.770;2023-11-19T07:00:11;33.20;;;3.15;;
45039;SDS011;30778;53.574;7.770;2023-11-19T07:02:37;27.67;;;4.35;;
45039;SDS011;30778;53.574;7.770;2023-11-19T07:05:03;31.23;;;3.83;;
45039;SDS011;30778;53.574;7.770;2023-11-19T07:07:30;26.95;;;3.83;;
45039;SDS011;30778;53.574;7.770;2023-11-19T07:09:57;33.08;;;4.32;;
45039;SDS011;30778;53.574;7.770;2023-11-19T07:12:22;30.67;;;3.58;;
45039;SDS011;30778;53.574;7.770;2023-11-19T07:14:48;27.67;;;3.90;;
45039;SDS011;30778;53.574;7.770;2023-11-19T07:17:13;32.92;;;4.45;;
45039;SDS011;30778;53.574;7.770;2023-11-19T07:19:40;28.02;;;5.28;;
45039;SDS011;30778;53.574;7.770;2023-11-19T07:22:05;30.70;;;3.95;;
45039;SDS011;30778;53.574;7.770;2023-11-19T07:24:32;25.75;;;3.80;;
45039;SDS011;30778;53.574;7.770;2023-11-19T07:26:57;30.23;;;4.18;;
45039;SDS011;30778;53.574;7.770;2023-11-19T07:29:22;21.63;;;2.85;;
45039;SDS011;30778;53.574;7.770;2023-11-19T07:31:48;32.72;;;3.72;;
45039;SDS011;30778;53.574;7.770;2023-11-19T07:34:14;30.48;;;3.88;;
45039;SDS011;30778;53.574;7.770;2023-11-19T07:36:40;37.47;;;3.63;;
45039;SDS011;30778;53.574;7.770;2023-11-19T07:39:06;25.02;;;4.43;;
45039;SDS011;30778;53.574;7.770;2023-11-19T07:41:32;28.95;;;4.40;;
45039;SDS011;30778;53.574;7.770;2023-11-19T07:43:58;30.52;;;3.20;;
45039;SDS011;30778;53.574;7.770;2023-11-19T07:46:24;22.92;;;3.50;;
45039;SDS011;30778;53.574;7.770;2023-11-19T07:48:51;31.50;;;3.72;;
45039;SDS011;30778;53.574;7.770;2023-11-19T07:51:17;34.63;;;5.65;;
45039;SDS011;30778;53.574;7.770;2023-11-19T07:53:42;32.60;;;5.75;;
45039;SDS011;30778;53.574;7.770;2023-11-19T07:56:08;31.17;;;4.60;;
45039;SDS011;30778;53.574;7.770;2023-11-19T07:58:34;32.75;;;4.25;;
45039;SDS011;30778;53.574;7.770;2023-11-19T08:01:00;31.00;;;3.13;;
45039;SDS011;30778;53.574;7.770;2023-11-19T08:03:27;36.42;;;5.07;;
45039;SDS011;30778;53.574;7.770;2023-11-19T08:05:55;24.58;;;4.63;;
45039;SDS011;30778;53.574;7.770;2023-11-19T08:08:22;24.23;;;3.60;;
45039;SDS011;30778;53.574;7.770;2023-11-19T08:10:48;43.90;;;5.38;;
45039;SDS011;30778;53.574;7.770;2023-11-19T08:13:14;33.90;;;4.35;;
45039;SDS011;30778;53.574;7.770;2023-11-19T08:15:40;28.27;;;3.92;;
45039;SDS011;30778;53.574;7.770;2023-11-19T08:18:06;24.83;;;3.78;;
45039;SDS011;30778;53.574;7.770;2023-11-19T08:20:32;23.10;;;3.45;;
45039;SDS011;30778;53.574;7.770;2023-11-19T08:22:58;35.35;;;4.35;;
45039;SDS011;30778;53.574;7.770;2023-11-19T08:25:24;28.88;;;2.92;;
45039;SDS011;30778;53.574;7.770;2023-11-19T08:27:50;35.13;;;5.00;;
45039;SDS011;30778;53.574;7.770;2023-11-19T08:30:16;20.38;;;4.22;;
45039;SDS011;30778;53.574;7.770;2023-11-19T08:32:41;25.50;;;2.83;;
45039;SDS011;30778;53.574;7.770;2023-11-19T08:35:07;39.15;;;4.70;;
45039;SDS011;30778;53.574;7.770;2023-11-19T08:37:34;36.40;;;4.13;;
45039;SDS011;30778;53.574;7.770;2023-11-19T08:40:01;34.33;;;4.22;;
45039;SDS011;30778;53.574;7.770;2023-11-19T08:42:29;24.77;;;3.60;;
45039;SDS011;30778;53.574;7.770;2023-11-19T08:44:54;26.02;;;3.55;;
45039;SDS011;30778;53.574;7.770;2023-11-19T08:47:20;34.40;;;4.15;;
45039;SDS011;30778;53.574;7.770;2023-11-19T08:49:47;33.67;;;4.95;;
45039;SDS011;30778;53.574;7.770;2023-11-19T08:52:15;41.50;;;4.88;;
45039;SDS011;30778;53.574;7.770;2023-11-19T08:54:42;19.42;;;3.88;;
45039;SDS011;30778;53.574;7.770;2023-11-19T08:57:08;26.10;;;2.97;;
45039;SDS011;30778;53.574;7.770;2023-11-19T08:59:34;36.05;;;5.38;;
45039;SDS011;30778;53.574;7.770;2023-11-19T09:02:00;26.98;;;3.45;;
45039;SDS011;30778;53.574;7.770;2023-11-19T09:04:27;25.80;;;2.67;;
45039;SDS011;30778;53.574;7.770;2023-11-19T09:06:53;27.05;;;3.13;;
45039;SDS011;30778;53.574;7.770;2023-11-19T09:09:19;33.28;;;5.03;;
45039;SDS011;30778;53.574;7.770;2023-11-19T09:11:44;32.88;;;6.25;;
45039;SDS011;30778;53.574;7.770;2023-11-19T09:14:10;22.05;;;3.35;;
45039;SDS011;30778;53.574;7.770;2023-11-19T09:16:36;31.83;;;3.88;;
45039;SDS011;30778;53.574;7.770;2023-11-19T09:19:01;36.10;;;3.90;;
45039;SDS011;30778;53.574;7.770;2023-11-19T09:21:27;34.92;;;5.22;;
45039;SDS011;30778;53.574;7.770;2023-11-19T09:23:57;25.67;;;3.95;;
45039;SDS011;30778;53.574;7.770;2023-11-19T09:26:22;29.33;;;3.85;;
45039;SDS011;30778;53.574;7.770;2023-11-19T09:28:50;32.60;;;4.03;;
45039;SDS011;30778;53.574;7.770;2023-11-19T09:31:17;35.72;;;4.47;;
45039;SDS011;30778;53.574;7.770;2023-11-19T09:33:44;18.98;;;3.30;;
45039;SDS011;30778;53.574;7.770;2023-11-19T09:36:13;30.20;;;3.83;;
45039;SDS011;30778;53.574;7.770;2023-11-19T09:38:39;30.48;;;3.63;;
45039;SDS011;30778;53.574;7.770;2023-11-19T09:41:06;22.75;;;2.85;;
45039;SDS011;30778;53.574;7.770;2023-11-19T09:43:39;30.88;;;4.22;;
45039;SDS011;30778;53.574;7.770;2023-11-19T09:46:05;36.20;;;4.35;;
45039;SDS011;30778;53.574;7.770;2023-11-19T09:48:35;32.80;;;5.25;;
45039;SDS011;30778;53.574;7.770;2023-11-19T09:51:02;21.88;;;3.30;;
45039;SDS011;30778;53.574;7.770;2023-11-19T09:53:29;33.10;;;4.47;;
45039;SDS011;30778;53.574;7.770;2023-11-19T09:55:56;22.75;;;3.53;;
45039;SDS011;30778;53.574;7.770;2023-11-19T09:58:22;28.67;;;4.85;;
45039;SDS011;30778;53.574;7.770;2023-11-19T10:00:49;29.05;;;4.53;;
45039;SDS011;30778;53.574;7.770;2023-11-19T10:03:16;30.60;;;3.72;;
45039;SDS011;30778;53.574;7.770;2023-11-19T10:05:43;27.83;;;3.40;;
45039;SDS011;30778;53.574;7.770;2023-11-19T10:08:08;27.25;;;5.45;;
45039;SDS011;30778;53.574;7.770;2023-11-19T10:10:37;31.40;;;2.92;;
45039;SDS011;30778;53.574;7.770;2023-11-19T10:13:02;30.02;;;4.82;;
45039;SDS011;30778;53.574;7.770;2023-11-19T10:15:28;31.73;;;3.65;;
45039;SDS011;30778;53.574;7.770;2023-11-19T10:18:07;31.77;;;3.67;;
45039;SDS011;30778;53.574;7.770;2023-11-19T10:20:36;24.77;;;4.90;;
45039;SDS011;30778;53.574;7.770;2023-11-19T10:23:06;22.58;;;3.22;;
45039;SDS011;30778;53.574;7.770;2023-11-19T10:25:40;37.92;;;5.57;;
45039;SDS011;30778;53.574;7.770;2023-11-19T10:28:06;28.92;;;4.30;;
45039;SDS011;30778;53.574;7.770;2023-11-19T10:30:31;30.05;;;3.35;;
45039;SDS011;30778;53.574;7.770;2023-11-19T10:35:36;18.25;;;3.17;;
45039;SDS011;30778;53.574;7.770;2023-11-19T10:38:19;26.35;;;5.13;;
45039;SDS011;30778;53.574;7.770;2023-11-19T10:40:45;23.65;;;4.03;;
45039;SDS011;30778;53.574;7.770;2023-11-19T10:43:10;30.35;;;4.85;;
45039;SDS011;30778;53.574;7.770;2023-11-19T10:45:38;28.17;;;3.47;;
45039;SDS011;30778;53.574;7.770;2023-11-19T10:48:07;24.95;;;4.68;;
45039;SDS011;30778;53.574;7.770;2023-11-19T10:50:36;26.63;;;3.80;;
45039;SDS011;30778;53.574;7.770;2023-11-19T10:53:03;23.75;;;4.55;;
45039;SDS011;30778;53.574;7.770;2023-11-19T10:55:36;32.35;;;4.28;;
45039;SDS011;30778;53.574;7.770;2023-11-19T10:58:06;34.00;;;4.13;;
45039;SDS011;30778;53.574;7.770;2023-11-19T11:00:47;32.25;;;4.25;;
45039;SDS011;30778;53.574;7.770;2023-11-19T11:03:19;22.67;;;2.78;;
45039;SDS011;30778;53.574;7.770;2023-11-19T11:08:14;25.13;;;3.60;;
45039;SDS011;30778;53.574;7.770;2023-11-19T11:10:45;27.25;;;3.05;;
45039;SDS011;30778;53.574;7.770;2023-11-19T11:13:13;33.92;;;3.78;;
45039;SDS011;30778;53.574;7.770;2023-11-19T11:15:40;37.28;;;3.97;;
45039;SDS011;30778;53.574;7.770;2023-11-19T11:18:08;24.05;;;3.13;;
45039;SDS011;30778;53.574;7.770;2023-11-19T11:20:34;28.58;;;3.70;;
45039;SDS011;30778;53.574;7.770;2023-11-19T11:23:05;27.13;;;3.22;;
45039;SDS011;30778;53.574;7.770;2023-11-19T11:29:01;25.98;;;3.55;;
45039;SDS011;30778;53.574;7.770;2023-11-19T11:38:00;34.60;;;3.67;;
45039;SDS011;30778;53.574;7.770;2023-11-19T11:40:15;23.67;;;3.25;;
45039;SDS011;30778;53.574;7.770;2023-11-19T11:42:46;23.88;;;4.03;;
45039;SDS011;30778;53.574;7.770;2023-11-19T11:45:12;21.98;;;2.35;;
45039;SDS011;30778;53.574;7.770;2023-11-19T11:50:20;21.60;;;3.17;;
45039;SDS011;30778;53.574;7.770;2023-11-19T11:55:27;19.30;;;2.67;;
45039;SDS011;30778;53.574;7.770;2023-11-19T11:58:02;30.60;;;4.25;;
45039;SDS011;30778;53.574;7.770;2023-11-19T12:00:30;30.08;;;2.45;;
45039;SDS011;30778;53.574;7.770;2023-11-19T12:03:08;27.25;;;3.10;;
45039;SDS011;30778;53.574;7.770;2023-11-19T12:05:41;22.63;;;3.83;;
45039;SDS011;30778;53.574;7.770;2023-11-19T12:08:09;22.02;;;2.80;;
45039;SDS011;30778;53.574;7.770;2023-11-19T12:10:38;28.70;;;4.75;;
45039;SDS011;30778;53.574;7.770;2023-11-19T12:13:13;25.85;;;3.22;;
45039;SDS011;30778;53.574;7.770;2023-11-19T12:18:24;28.08;;;3.67;;
45039;SDS011;30778;53.574;7.770;2023-11-19T12:20:52;35.85;;;4.28;;
45039;SDS011;30778;53.574;7.770;2023-11-19T12:23:17;33.67;;;4.55;;
45039;SDS011;30778;53.574;7.770;2023-11-19T12:25:43;35.58;;;4.38;;
45039;SDS011;30778;53.574;7.770;2023-11-19T12:28:14;25.55;;;3.42;;
45039;SDS011;30778;53.574;7.770;2023-11-19T12:30:44;19.70;;;3.22;;
45039;SDS011;30778;53.574;7.770;2023-11-19T12:33:11;25.15;;;3.33;;
45039;SDS011;30778;53.574;7.770;2023-11-19T12:35:45;27.33;;;4.20;;
45039;SDS011;30778;53.574;7.770;2023-11-19T12:38:25;26.13;;;2.47;;
45039;SDS011;30778;53.574;7.770;2023-11-19T12:41:07;36.08;;;4.38;;
45039;SDS011;30778;53.574;7.770;2023-11-19T12:43:37;25.98;;;4.22;;
45039;SDS011;30778;53.574;7.770;2023-11-19T12:46:21;26.50;;;3.25;;
45039;SDS011;30778;53.574;7.770;2023-11-19T12:48:48;27.70;;;2.38;;
45039;SDS011;30778;53.574;7.770;2023-11-19T12:51:14;35.35;;;3.22;;
45039;SDS011;30778;53.574;7.770;2023-11-19T12:53:47;29.23;;;3.42;;
45039;SDS011;30778;53.574;7.770;2023-11-19T12:56:15;22.55;;;2.60;;
45039;SDS011;30778;53.574;7.770;2023-11-19T12:58:41;20.67;;;3.30;;
45039;SDS011;30778;53.574;7.770;2023-11-19T13:01:08;23.52;;;2.28;;
45039;SDS011;30778;53.574;7.770;2023-11-19T13:03:37;24.23;;;2.22;;
45039;SDS011;30778;53.574;7.770;2023-11-19T13:06:07;25.73;;;4.47;;
45039;SDS011;30778;53.574;7.770;2023-11-19T13:08:54;21.27;;;2.42;;
45039;SDS011;30778;53.574;7.770;2023-11-19T13:11:30;22.58;;;2.75;;
45039;SDS011;30778;53.574;7.770;2023-11-19T13:14:00;23.05;;;2.67;;
45039;SDS011;30778;53.574;7.770;2023-11-19T13:16:31;22.00;;;2.80;;
45039;SDS011;30778;53.574;7.770;2023-11-19T13:18:57;17.02;;;2.08;;
45039;SDS011;30778;53.574;7.770;2023-11-19T13:21:25;17.75;;;2.22;;
45039;SDS011;30778;53.574;7.770;2023-11-19T13:23:50;25.33;;;2.58;;
45039;SDS011;30778;53.574;7.770;2023-11-19T13:26:16;17.35;;;2.97;;
45039;SDS011;30778;53.574;7.770;2023-11-19T13:28:41;19.17;;;2.72;;
45039;SDS011;30778;53.574;7.770;2023-11-19T13:31:07;16.05;;;3.05;;
45039;SDS011;30778;53.574;7.770;2023-11-19T13:33:33;14.73;;;2.20;;
45039;SDS011;30778;53.574;7.770;2023-11-19T13:35:59;24.55;;;3.88;;
45039;SDS011;30778;53.574;7.770;2023-11-19T13:38:30;19.52;;;3.40;;
45039;SDS011;30778;53.574;7.770;2023-11-19T13:40:56;23.52;;;3.67;;
45039;SDS011;30778;53.574;7.770;2023-11-19T13:43:22;30.13;;;3.13;;
45039;SDS011;30778;53.574;7.770;2023-11-19T13:45:47;35.22;;;3.80;;
45039;SDS011;30778;53.574;7.770;2023-11-19T13:48:12;17.42;;;3.28;;
45039;SDS011;30778;53.574;7.770;2023-11-19T13:50:38;20.80;;;2.60;;
45039;SDS011;30778;53.574;7.770;2023-11-19T13:53:03;25.02;;;3.58;;
45039;SDS011;30778;53.574;7.770;2023-11-19T13:55:30;12.98;;;2.17;;
45039;SDS011;30778;53.574;7.770;2023-11-19T13:57:55;22.70;;;2.20;;
45039;SDS011;30778;53.574;7.770;2023-11-19T14:00:21;18.15;;;2.88;;
45039;SDS011;30778;53.574;7.770;2023-11-19T14:02:48;26.77;;;3.00;;
45039;SDS011;30778;53.574;7.770;2023-11-19T14:05:14;14.85;;;3.33;;
45039;SDS011;30778;53.574;7.770;2023-11-19T14:07:43;20.20;;;2.53;;
45039;SDS011;30778;53.574;7.770;2023-11-19T14:10:11;13.65;;;2.45;;
45039;SDS011;30778;53.574;7.770;2023-11-19T14:12:37;12.82;;;2.20;;
45039;SDS011;30778;53.574;7.770;2023-11-19T14:15:04;10.50;;;2.22;;
45039;SDS011;30778;53.574;7.770;2023-11-19T14:17:34;19.23;;;2.00;;
45039;SDS011;30778;53.574;7.770;2023-11-19T14:20:00;11.95;;;1.88;;
45039;SDS011;30778;53.574;7.770;2023-11-19T14:22:27;12.13;;;1.83;;
45039;SDS011;30778;53.574;7.770;2023-11-19T14:24:53;18.42;;;2.42;;
45039;SDS011;30778;53.574;7.770;2023-11-19T14:27:20;18.42;;;2.22;;
45039;SDS011;30778;53.574;7.770;2023-11-19T14:29:47;17.55;;;2.47;;
45039;SDS011;30778;53.574;7.770;2023-11-19T14:32:13;19.42;;;2.47;;
45039;SDS011;30778;53.574;7.770;2023-11-19T14:34:38;13.80;;;1.83;;
45039;SDS011;30778;53.574;7.770;2023-11-19T14:37:04;23.40;;;2.88;;
45039;SDS011;30778;53.574;7.770;2023-11-19T14:39:29;19.98;;;4.55;;
45039;SDS011;30778;53.574;7.770;2023-11-19T14:41:56;14.23;;;3.58;;
45039;SDS011;30778;53.574;7.770;2023-11-19T14:44:26;9.30;;;3.03;;
45039;SDS011;30778;53.574;7.770;2023-11-19T14:46:52;8.15;;;1.90;;
45039;SDS011;30778;53.574;7.770;2023-11-19T14:49:20;5.50;;;1.20;;
45039;SDS011;30778;53.574;7.770;2023-11-19T14:51:49;8.63;;;1.20;;
45039;SDS011;30778;53.574;7.770;2023-11-19T14:55:00;10.82;;;1.35;;
45039;SDS011;30778;53.574;7.770;2023-11-19T14:57:34;10.27;;;1.10;;
45039;SDS011;30778;53.574;7.770;2023-11-19T15:00:01;10.50;;;1.20;;
45039;SDS011;30778;53.574;7.770;2023-11-19T15:02:26;16.67;;;2.65;;